sensor_id;sensor_type;location;lat;lon;timestamp;temperature;humidity
23783;DHT22;12071;50.850;4.446;2024-02-21T00:02:06;10.20;1.00
23783;DHT22;12071;50.850;4.446;2024-02-21T00:04:31;10.20;1.00
23783;DHT22;12071;50.850;4.446;2024-02-21T00:06:57;10.30;1.00
23783;DHT22;12071;50.850;4.446;2024-02-21T00:09:23;10.30;1.00
23783;DHT22;12071;50.850;4.446;2024-02-21T00:11:48;10.20;1.00
23783;DHT22;12071;50.850;4.446;2024-02-21T00:14:14;10.30;1.00
23783;DHT22;12071;50.850;4.446;2024-02-21T00:16:40;10.10;1.00
23783;DHT22;12071;50.850;4.446;2024-02-21T00:19:05;10.00;1.00
23783;DHT22;12071;50.850;4.446;2024-02-21T00:21:31;10.00;1.00
23783;DHT22;12071;50.850;4.446;2024-02-21T00:23:56;10.10;1.00
23783;DHT22;12071;50.850;4.446;2024-02-21T00:26:22;10.10;1.00
23783;DHT22;12071;50.850;4.446;2024-02-21T00:28:48;10.10;1.00
23783;DHT22;12071;50.850;4.446;2024-02-21T00:31:14;10.30;1.00
23783;DHT22;12071;50.850;4.446;2024-02-21T00:33:39;10.30;1.00
23783;DHT22;12071;50.850;4.446;2024-02-21T00:36:05;10.30;1.00
23783;DHT22;12071;50.850;4.446;2024-02-21T00:38:30;10.10;1.00
23783;DHT22;12071;50.850;4.446;2024-02-21T00:40:56;10.00;1.00
23783;DHT22;12071;50.850;4.446;2024-02-21T00:43:22;9.90;1.00
23783;DHT22;12071;50.850;4.446;2024-02-21T00:45:49;9.90;1.00
23783;DHT22;12071;50.850;4.446;2024-02-21T00:48:15;10.10;1.00
23783;DHT22;12071;50.850;4.446;2024-02-21T00:50:41;10.20;1.00
23783;DHT22;12071;50.850;4.446;2024-02-21T00:53:08;10.10;1.00
23783;DHT22;12071;50.850;4.446;2024-02-21T00:55:35;10.30;1.00
23783;DHT22;12071;50.850;4.446;2024-02-21T00:58:00;10.40;99.90
23783;DHT22;12071;50.850;4.446;2024-02-21T01:00:26;10.40;99.90
23783;DHT22;12071;50.850;4.446;2024-02-21T01:02:52;10.50;99.90
23783;DHT22;12071;50.850;4.446;2024-02-21T01:05:17;10.40;99.90
23783;DHT22;12071;50.850;4.446;2024-02-21T01:07:43;10.10;99.90
23783;DHT22;12071;50.850;4.446;2024-02-21T01:10:09;10.00;1.00
23783;DHT22;12071;50.850;4.446;2024-02-21T01:12:34;10.00;1.00
23783;DHT22;12071;50.850;4.446;2024-02-21T01:15:00;10.10;1.00
23783;DHT22;12071;50.850;4.446;2024-02-21T01:17:26;10.20;1.00
23783;DHT22;12071;50.850;4.446;2024-02-21T01:19:51;10.20;1.00
23783;DHT22;12071;50.850;4.446;2024-02-21T01:22:17;10.10;1.00
23783;DHT22;12071;50.850;4.446;2024-02-21T01:24:43;10.10;1.00
23783;DHT22;12071;50.850;4.446;2024-02-21T01:27:10;10.30;1.00
23783;DHT22;12071;50.850;4.446;2024-02-21T01:29:36;10.20;1.00
23783;DHT22;12071;50.850;4.446;2024-02-21T01:32:02;10.50;99.90
23783;DHT22;12071;50.850;4.446;2024-02-21T01:34:28;10.40;99.90
23783;DHT22;12071;50.850;4.446;2024-02-21T01:36:53;10.60;99.90
23783;DHT22;12071;50.850;4.446;2024-02-21T01:39:19;10.40;99.90
23783;DHT22;12071;50.850;4.446;2024-02-21T01:41:45;10.20;99.90
23783;DHT22;12071;50.850;4.446;2024-02-21T01:44:11;10.10;99.90
23783;DHT22;12071;50.850;4.446;2024-02-21T01:46:37;10.10;1.00
23783;DHT22;12071;50.850;4.446;2024-02-21T01:49:03;10.00;1.00
23783;DHT22;12071;50.850;4.446;2024-02-21T01:51:32;10.00;1.00
23783;DHT22;12071;50.850;4.446;2024-02-21T01:53:58;10.00;1.00
23783;DHT22;12071;50.850;4.446;2024-02-21T01:56:24;10.10;1.00
23783;DHT22;12071;50.850;4.446;2024-02-21T01:58:51;10.10;1.00
23783;DHT22;12071;50.850;4.446;2024-02-21T02:01:17;10.10;1.00
23783;DHT22;12071;50.850;4.446;2024-02-21T02:03:45;9.90;1.00
23783;DHT22;12071;50.850;4.446;2024-02-21T02:06:10;9.80;1.00
23783;DHT22;12071;50.850;4.446;2024-02-21T02:08:36;9.80;1.00
23783;DHT22;12071;50.850;4.446;2024-02-21T02:11:02;9.80;1.00
23783;DHT22;12071;50.850;4.446;2024-02-21T02:13:28;9.80;1.00
23783;DHT22;12071;50.850;4.446;2024-02-21T02:15:54;9.80;1.00
23783;DHT22;12071;50.850;4.446;2024-02-21T02:18:20;9.80;1.00
23783;DHT22;12071;50.850;4.446;2024-02-21T02:20:47;9.90;1.00
23783;DHT22;12071;50.850;4.446;2024-02-21T02:25:54;9.90;1.00
23783;DHT22;12071;50.850;4.446;2024-02-21T02:28:21;9.80;1.00
23783;DHT22;12071;50.850;4.446;2024-02-21T02:30:47;9.80;1.00
23783;DHT22;12071;50.850;4.446;2024-02-21T02:33:13;9.90;1.00
23783;DHT22;12071;50.850;4.446;2024-02-21T02:35:39;9.80;1.00
23783;DHT22;12071;50.850;4.446;2024-02-21T02:38:05;9.90;1.00
23783;DHT22;12071;50.850;4.446;2024-02-21T02:40:32;9.90;1.00
23783;DHT22;12071;50.850;4.446;2024-02-21T02:42:58;10.00;1.00
23783;DHT22;12071;50.850;4.446;2024-02-21T02:45:24;10.10;1.00
23783;DHT22;12071;50.850;4.446;2024-02-21T02:47:52;10.00;1.00
23783;DHT22;12071;50.850;4.446;2024-02-21T02:50:17;10.10;1.00
23783;DHT22;12071;50.850;4.446;2024-02-21T02:52:43;10.10;1.00
23783;DHT22;12071;50.850;4.446;2024-02-21T02:55:09;10.20;99.90
23783;DHT22;12071;50.850;4.446;2024-02-21T02:57:34;10.20;99.90
23783;DHT22;12071;50.850;4.446;2024-02-21T03:00:00;10.30;99.90
23783;DHT22;12071;50.850;4.446;2024-02-21T03:02:26;10.00;99.90
23783;DHT22;12071;50.850;4.446;2024-02-21T03:04:51;10.10;99.90
23783;DHT22;12071;50.850;4.446;2024-02-21T03:07:17;10.30;99.90
23783;DHT22;12071;50.850;4.446;2024-02-21T03:09:43;10.30;99.90
23783;DHT22;12071;50.850;4.446;2024-02-21T03:12:09;10.20;99.90
23783;DHT22;12071;50.850;4.446;2024-02-21T03:14:34;10.30;99.90
23783;DHT22;12071;50.850;4.446;2024-02-21T03:17:01;10.30;99.90
23783;DHT22;12071;50.850;4.446;2024-02-21T03:19:27;10.30;99.90
23783;DHT22;12071;50.850;4.446;2024-02-21T03:21:53;10.10;99.90
23783;DHT22;12071;50.850;4.446;2024-02-21T03:24:19;10.10;99.90
23783;DHT22;12071;50.850;4.446;2024-02-21T03:26:45;10.20;99.90
23783;DHT22;12071;50.850;4.446;2024-02-21T03:29:15;10.30;99.90
23783;DHT22;12071;50.850;4.446;2024-02-21T03:31:42;10.20;99.90
23783;DHT22;12071;50.850;4.446;2024-02-21T03:34:07;10.10;99.90
23783;DHT22;12071;50.850;4.446;2024-02-21T03:36:33;10.20;99.90
23783;DHT22;12071;50.850;4.446;2024-02-21T03:38:59;10.50;99.90
23783;DHT22;12071;50.850;4.446;2024-02-21T03:41:25;10.30;99.90
23783;DHT22;12071;50.850;4.446;2024-02-21T03:43:51;10.40;99.90
23783;DHT22;12071;50.850;4.446;2024-02-21T03:46:17;10.50;99.90
23783;DHT22;12071;50.850;4.446;2024-02-21T03:48:42;10.50;99.90
23783;DHT22;12071;50.850;4.446;2024-02-21T03:51:08;10.40;99.90
23783;DHT22;12071;50.850;4.446;2024-02-21T03:53:33;10.50;99.90
23783;DHT22;12071;50.850;4.446;2024-02-21T03:56:03;10.40;99.90
23783;DHT22;12071;50.850;4.446;2024-02-21T03:58:30;10.40;99.90
23783;DHT22;12071;50.850;4.446;2024-02-21T04:00:56;10.30;99.90
23783;DHT22;12071;50.850;4.446;2024-02-21T04:03:21;10.30;99.90
23783;DHT22;12071;50.850;4.446;2024-02-21T04:05:47;10.20;99.90
23783;DHT22;12071;50.850;4.446;2024-02-21T04:08:14;10.20;99.90
23783;DHT22;12071;50.850;4.446;2024-02-21T04:10:39;10.20;99.90
23783;DHT22;12071;50.850;4.446;2024-02-21T04:13:06;10.20;99.90
23783;DHT22;12071;50.850;4.446;2024-02-21T04:15:32;10.10;99.90
23783;DHT22;12071;50.850;4.446;2024-02-21T04:17:58;10.10;99.90
23783;DHT22;12071;50.850;4.446;2024-02-21T04:20:24;10.00;99.90
23783;DHT22;12071;50.850;4.446;2024-02-21T04:22:50;10.00;1.00
23783;DHT22;12071;50.850;4.446;2024-02-21T04:25:15;10.00;99.90
23783;DHT22;12071;50.850;4.446;2024-02-21T04:27:41;10.10;99.90
23783;DHT22;12071;50.850;4.446;2024-02-21T04:30:07;10.20;99.90
23783;DHT22;12071;50.850;4.446;2024-02-21T04:32:33;10.00;99.90
23783;DHT22;12071;50.850;4.446;2024-02-21T04:34:58;10.20;99.90
23783;DHT22;12071;50.850;4.446;2024-02-21T04:37:24;10.10;99.90
23783;DHT22;12071;50.850;4.446;2024-02-21T04:39:50;10.00;99.90
23783;DHT22;12071;50.850;4.446;2024-02-21T04:42:16;9.80;99.90
23783;DHT22;12071;50.850;4.446;2024-02-21T04:44:41;10.00;99.90
23783;DHT22;12071;50.850;4.446;2024-02-21T04:47:07;10.00;1.00
23783;DHT22;12071;50.850;4.446;2024-02-21T04:49:33;10.00;99.90
23783;DHT22;12071;50.850;4.446;2024-02-21T04:51:59;10.00;1.00
23783;DHT22;12071;50.850;4.446;2024-02-21T04:54:25;10.20;99.90
23783;DHT22;12071;50.850;4.446;2024-02-21T04:56:51;10.30;99.90
23783;DHT22;12071;50.850;4.446;2024-02-21T04:59:18;10.30;99.90
23783;DHT22;12071;50.850;4.446;2024-02-21T05:01:44;10.20;99.90
23783;DHT22;12071;50.850;4.446;2024-02-21T05:04:10;10.10;99.90
23783;DHT22;12071;50.850;4.446;2024-02-21T05:06:42;10.20;99.90
23783;DHT22;12071;50.850;4.446;2024-02-21T05:09:08;10.20;99.90
23783;DHT22;12071;50.850;4.446;2024-02-21T05:11:34;10.20;99.90
23783;DHT22;12071;50.850;4.446;2024-02-21T05:14:00;10.30;99.90
23783;DHT22;12071;50.850;4.446;2024-02-21T05:16:27;10.40;99.90
23783;DHT22;12071;50.850;4.446;2024-02-21T05:18:53;10.40;99.90
23783;DHT22;12071;50.850;4.446;2024-02-21T05:21:18;10.30;99.90
23783;DHT22;12071;50.850;4.446;2024-02-21T05:23:44;10.10;99.90
23783;DHT22;12071;50.850;4.446;2024-02-21T05:26:10;10.10;99.90
23783;DHT22;12071;50.850;4.446;2024-02-21T05:28:36;10.10;99.90
23783;DHT22;12071;50.850;4.446;2024-02-21T05:31:02;10.10;99.90
23783;DHT22;12071;50.850;4.446;2024-02-21T05:33:28;10.20;99.90
23783;DHT22;12071;50.850;4.446;2024-02-21T05:35:54;10.20;99.90
23783;DHT22;12071;50.850;4.446;2024-02-21T05:38:19;10.20;99.90
23783;DHT22;12071;50.850;4.446;2024-02-21T05:40:45;10.10;99.90
23783;DHT22;12071;50.850;4.446;2024-02-21T05:43:11;10.10;99.90
23783;DHT22;12071;50.850;4.446;2024-02-21T05:45:37;10.10;99.90
23783;DHT22;12071;50.850;4.446;2024-02-21T05:48:03;10.20;99.90
23783;DHT22;12071;50.850;4.446;2024-02-21T05:50:29;10.20;99.90
23783;DHT22;12071;50.850;4.446;2024-02-21T05:52:55;10.20;99.90
23783;DHT22;12071;50.850;4.446;2024-02-21T05:55:21;10.10;99.90
23783;DHT22;12071;50.850;4.446;2024-02-21T05:57:48;10.10;99.90
23783;DHT22;12071;50.850;4.446;2024-02-21T06:00:14;10.00;99.90
23783;DHT22;12071;50.850;4.446;2024-02-21T06:02:40;10.00;99.90
23783;DHT22;12071;50.850;4.446;2024-02-21T06:05:06;10.00;99.90
23783;DHT22;12071;50.850;4.446;2024-02-21T06:07:35;10.00;99.90
23783;DHT22;12071;50.850;4.446;2024-02-21T06:10:04;10.10;99.90
23783;DHT22;12071;50.850;4.446;2024-02-21T06:12:30;10.10;99.90
23783;DHT22;12071;50.850;4.446;2024-02-21T06:14:55;10.00;99.90
23783;DHT22;12071;50.850;4.446;2024-02-21T06:17:21;10.20;99.90
23783;DHT22;12071;50.850;4.446;2024-02-21T06:19:47;10.20;99.90
23783;DHT22;12071;50.850;4.446;2024-02-21T06:22:12;10.20;99.90
23783;DHT22;12071;50.850;4.446;2024-02-21T06:24:38;10.10;99.90
23783;DHT22;12071;50.850;4.446;2024-02-21T06:27:07;10.10;99.90
23783;DHT22;12071;50.850;4.446;2024-02-21T06:29:33;10.20;99.90
23783;DHT22;12071;50.850;4.446;2024-02-21T06:31:59;10.20;99.90
23783;DHT22;12071;50.850;4.446;2024-02-21T06:34:25;10.10;99.90
23783;DHT22;12071;50.850;4.446;2024-02-21T06:36:51;10.10;99.90
23783;DHT22;12071;50.850;4.446;2024-02-21T06:39:17;10.10;99.90
23783;DHT22;12071;50.850;4.446;2024-02-21T06:41:43;10.10;99.90
23783;DHT22;12071;50.850;4.446;2024-02-21T06:44:08;10.10;99.90
23783;DHT22;12071;50.850;4.446;2024-02-21T06:46:34;10.00;99.90
23783;DHT22;12071;50.850;4.446;2024-02-21T06:49:00;10.10;1.00
23783;DHT22;12071;50.850;4.446;2024-02-21T06:51:27;10.00;1.00
23783;DHT22;12071;50.850;4.446;2024-02-21T06:53:53;10.00;1.00
23783;DHT22;12071;50.850;4.446;2024-02-21T06:56:19;10.10;1.00
23783;DHT22;12071;50.850;4.446;2024-02-21T06:58:45;10.10;1.00
23783;DHT22;12071;50.850;4.446;2024-02-21T07:01:11;10.00;1.00
23783;DHT22;12071;50.850;4.446;2024-02-21T07:03:37;9.80;1.00
23783;DHT22;12071;50.850;4.446;2024-02-21T07:06:03;9.90;1.00
23783;DHT22;12071;50.850;4.446;2024-02-21T07:08:29;9.80;1.00
23783;DHT22;12071;50.850;4.446;2024-02-21T07:10:55;10.00;1.00
23783;DHT22;12071;50.850;4.446;2024-02-21T07:13:20;10.00;1.00
23783;DHT22;12071;50.850;4.446;2024-02-21T07:15:48;9.90;1.00
23783;DHT22;12071;50.850;4.446;2024-02-21T07:18:13;9.80;1.00
23783;DHT22;12071;50.850;4.446;2024-02-21T07:20:39;9.70;1.00
23783;DHT22;12071;50.850;4.446;2024-02-21T07:23:07;9.80;1.00
23783;DHT22;12071;50.850;4.446;2024-02-21T07:25:32;9.90;1.00
23783;DHT22;12071;50.850;4.446;2024-02-21T07:27:58;9.80;1.00
23783;DHT22;12071;50.850;4.446;2024-02-21T07:30:24;9.90;1.00
23783;DHT22;12071;50.850;4.446;2024-02-21T07:32:50;9.90;1.00
23783;DHT22;12071;50.850;4.446;2024-02-21T07:35:17;9.90;1.00
23783;DHT22;12071;50.850;4.446;2024-02-21T07:37:43;9.90;1.00
23783;DHT22;12071;50.850;4.446;2024-02-21T07:40:16;9.90;1.00
23783;DHT22;12071;50.850;4.446;2024-02-21T07:42:42;9.90;1.00
23783;DHT22;12071;50.850;4.446;2024-02-21T07:45:09;10.10;1.00
23783;DHT22;12071;50.850;4.446;2024-02-21T07:47:35;10.10;1.00
23783;DHT22;12071;50.850;4.446;2024-02-21T07:50:03;10.00;1.00
23783;DHT22;12071;50.850;4.446;2024-02-21T07:52:29;10.00;1.00
23783;DHT22;12071;50.850;4.446;2024-02-21T07:54:55;9.90;1.00
23783;DHT22;12071;50.850;4.446;2024-02-21T07:57:22;10.00;1.00
23783;DHT22;12071;50.850;4.446;2024-02-21T07:59:48;10.00;1.00
23783;DHT22;12071;50.850;4.446;2024-02-21T08:02:17;10.00;1.00
23783;DHT22;12071;50.850;4.446;2024-02-21T08:04:42;10.10;1.00
23783;DHT22;12071;50.850;4.446;2024-02-21T08:07:09;10.10;1.00
23783;DHT22;12071;50.850;4.446;2024-02-21T08:09:35;10.10;1.00
23783;DHT22;12071;50.850;4.446;2024-02-21T08:12:03;10.10;1.00
23783;DHT22;12071;50.850;4.446;2024-02-21T08:14:31;10.10;1.00
23783;DHT22;12071;50.850;4.446;2024-02-21T08:16:57;10.10;1.00
23783;DHT22;12071;50.850;4.446;2024-02-21T08:19:22;10.10;1.00
23783;DHT22;12071;50.850;4.446;2024-02-21T08:21:48;10.10;1.00
23783;DHT22;12071;50.850;4.446;2024-02-21T08:24:14;10.10;1.00
23783;DHT22;12071;50.850;4.446;2024-02-21T08:26:43;10.20;1.00
23783;DHT22;12071;50.850;4.446;2024-02-21T08:29:12;10.20;1.00
23783;DHT22;12071;50.850;4.446;2024-02-21T08:31:39;10.20;99.90
23783;DHT22;12071;50.850;4.446;2024-02-21T08:34:04;10.20;99.90
23783;DHT22;12071;50.850;4.446;2024-02-21T08:36:34;10.20;99.90
23783;DHT22;12071;50.850;4.446;2024-02-21T08:39:01;10.20;99.90
23783;DHT22;12071;50.850;4.446;2024-02-21T08:41:30;10.20;99.90
23783;DHT22;12071;50.850;4.446;2024-02-21T08:43:56;10.10;99.90
23783;DHT22;12071;50.850;4.446;2024-02-21T08:46:22;10.20;99.90
23783;DHT22;12071;50.850;4.446;2024-02-21T08:48:50;10.20;99.90
23783;DHT22;12071;50.850;4.446;2024-02-21T08:51:18;10.40;99.90
23783;DHT22;12071;50.850;4.446;2024-02-21T08:53:45;10.50;99.90
23783;DHT22;12071;50.850;4.446;2024-02-21T08:56:10;10.40;99.90
23783;DHT22;12071;50.850;4.446;2024-02-21T08:58:36;10.40;99.90
23783;DHT22;12071;50.850;4.446;2024-02-21T09:01:03;10.40;99.90
23783;DHT22;12071;50.850;4.446;2024-02-21T09:03:33;10.40;99.90
23783;DHT22;12071;50.850;4.446;2024-02-21T09:05:59;10.50;99.90
23783;DHT22;12071;50.850;4.446;2024-02-21T09:08:26;10.60;99.90
23783;DHT22;12071;50.850;4.446;2024-02-21T09:10:52;10.50;99.90
23783;DHT22;12071;50.850;4.446;2024-02-21T09:13:18;10.50;99.90
23783;DHT22;12071;50.850;4.446;2024-02-21T09:15:44;10.60;99.90
23783;DHT22;12071;50.850;4.446;2024-02-21T09:18:10;10.60;99.90
23783;DHT22;12071;50.850;4.446;2024-02-21T09:20:35;10.40;99.90
23783;DHT22;12071;50.850;4.446;2024-02-21T09:23:03;10.60;99.90
23783;DHT22;12071;50.850;4.446;2024-02-21T09:25:30;10.60;99.90
23783;DHT22;12071;50.850;4.446;2024-02-21T09:27:57;10.70;99.90
23783;DHT22;12071;50.850;4.446;2024-02-21T09:30:23;10.60;99.90
23783;DHT22;12071;50.850;4.446;2024-02-21T09:32:49;10.60;99.90
23783;DHT22;12071;50.850;4.446;2024-02-21T09:35:15;10.60;99.90
23783;DHT22;12071;50.850;4.446;2024-02-21T09:37:41;10.80;99.90
23783;DHT22;12071;50.850;4.446;2024-02-21T09:40:07;10.90;99.90
23783;DHT22;12071;50.850;4.446;2024-02-21T09:42:37;10.80;99.90
23783;DHT22;12071;50.850;4.446;2024-02-21T09:50:34;10.90;99.90
23783;DHT22;12071;50.850;4.446;2024-02-21T09:53:02;11.00;99.90
23783;DHT22;12071;50.850;4.446;2024-02-21T09:55:31;11.00;99.90
23783;DHT22;12071;50.850;4.446;2024-02-21T09:58:01;11.10;99.90
23783;DHT22;12071;50.850;4.446;2024-02-21T10:00:27;11.10;99.90
23783;DHT22;12071;50.850;4.446;2024-02-21T10:02:54;11.20;99.90
23783;DHT22;12071;50.850;4.446;2024-02-21T10:05:19;11.20;99.90
23783;DHT22;12071;50.850;4.446;2024-02-21T10:07:45;11.20;99.90
23783;DHT22;12071;50.850;4.446;2024-02-21T10:10:12;11.10;99.90
23783;DHT22;12071;50.850;4.446;2024-02-21T10:12:49;11.10;99.90
23783;DHT22;12071;50.850;4.446;2024-02-21T10:15:20;11.20;99.90
23783;DHT22;12071;50.850;4.446;2024-02-21T10:17:46;11.30;99.90
23783;DHT22;12071;50.850;4.446;2024-02-21T10:20:12;11.20;99.90
23783;DHT22;12071;50.850;4.446;2024-02-21T10:22:39;11.10;99.90
23783;DHT22;12071;50.850;4.446;2024-02-21T10:25:12;11.20;99.90
23783;DHT22;12071;50.850;4.446;2024-02-21T10:27:39;11.30;99.90
23783;DHT22;12071;50.850;4.446;2024-02-21T10:30:12;11.50;99.90
23783;DHT22;12071;50.850;4.446;2024-02-21T10:32:54;11.50;23.00
23783;DHT22;12071;50.850;4.446;2024-02-21T10:35:26;11.40;17.30
23783;DHT22;12071;50.850;4.446;2024-02-21T10:37:54;11.40;87.50
23783;DHT22;12071;50.850;4.446;2024-02-21T10:40:23;11.50;42.10
23783;DHT22;12071;50.850;4.446;2024-02-21T10:42:56;11.50;20.00
23783;DHT22;12071;50.850;4.446;2024-02-21T10:45:24;11.60;1.00
23783;DHT22;12071;50.850;4.446;2024-02-21T10:47:55;11.70;1.00
23783;DHT22;12071;50.850;4.446;2024-02-21T10:50:26;11.80;1.00
23783;DHT22;12071;50.850;4.446;2024-02-21T10:52:59;11.70;1.00
23783;DHT22;12071;50.850;4.446;2024-02-21T10:55:37;11.50;1.00
23783;DHT22;12071;50.850;4.446;2024-02-21T10:58:04;11.50;1.00
23783;DHT22;12071;50.850;4.446;2024-02-21T11:00:30;11.50;1.00
23783;DHT22;12071;50.850;4.446;2024-02-21T11:02:57;11.60;1.00
23783;DHT22;12071;50.850;4.446;2024-02-21T11:05:24;11.70;1.00
23783;DHT22;12071;50.850;4.446;2024-02-21T11:07:51;11.80;1.00
23783;DHT22;12071;50.850;4.446;2024-02-21T11:10:24;11.80;1.00
23783;DHT22;12071;50.850;4.446;2024-02-21T11:13:13;11.90;99.90
23783;DHT22;12071;50.850;4.446;2024-02-21T11:15:39;11.80;99.90
23783;DHT22;12071;50.850;4.446;2024-02-21T11:18:05;11.80;99.90
23783;DHT22;12071;50.850;4.446;2024-02-21T11:20:35;11.90;99.90
23783;DHT22;12071;50.850;4.446;2024-02-21T11:23:00;11.80;99.90
23783;DHT22;12071;50.850;4.446;2024-02-21T11:25:27;11.80;99.90
23783;DHT22;12071;50.850;4.446;2024-02-21T11:28:03;11.90;99.90
23783;DHT22;12071;50.850;4.446;2024-02-21T11:30:33;11.70;99.90
23783;DHT22;12071;50.850;4.446;2024-02-21T11:33:05;11.70;1.00
23783;DHT22;12071;50.850;4.446;2024-02-21T11:35:35;11.70;1.00
23783;DHT22;12071;50.850;4.446;2024-02-21T11:38:11;11.70;1.00
23783;DHT22;12071;50.850;4.446;2024-02-21T11:40:41;11.60;99.90
23783;DHT22;12071;50.850;4.446;2024-02-21T11:43:07;11.70;1.00
23783;DHT22;12071;50.850;4.446;2024-02-21T11:45:33;11.70;1.00
23783;DHT22;12071;50.850;4.446;2024-02-21T11:47:59;11.50;1.00
23783;DHT22;12071;50.850;4.446;2024-02-21T11:50:31;11.40;1.00
23783;DHT22;12071;50.850;4.446;2024-02-21T11:52:57;11.50;1.00
23783;DHT22;12071;50.850;4.446;2024-02-21T11:55:23;11.50;1.00
23783;DHT22;12071;50.850;4.446;2024-02-21T11:57:49;11.50;99.90
23783;DHT22;12071;50.850;4.446;2024-02-21T12:00:16;11.60;99.90
23783;DHT22;12071;50.850;4.446;2024-02-21T12:02:43;11.50;99.90
23783;DHT22;12071;50.850;4.446;2024-02-21T12:05:09;11.40;1.00
23783;DHT22;12071;50.850;4.446;2024-02-21T12:07:36;11.40;1.00
23783;DHT22;12071;50.850;4.446;2024-02-21T12:10:09;11.50;1.00
23783;DHT22;12071;50.850;4.446;2024-02-21T12:12:36;11.50;1.00
23783;DHT22;12071;50.850;4.446;2024-02-21T12:15:04;11.60;1.00
23783;DHT22;12071;50.850;4.446;2024-02-21T12:17:33;11.50;1.00
23783;DHT22;12071;50.850;4.446;2024-02-21T12:20:01;11.30;1.00
23783;DHT22;12071;50.850;4.446;2024-02-21T12:22:26;11.30;1.00
23783;DHT22;12071;50.850;4.446;2024-02-21T12:24:53;11.30;1.00
23783;DHT22;12071;50.850;4.446;2024-02-21T12:27:19;11.30;1.00
23783;DHT22;12071;50.850;4.446;2024-02-21T12:29:45;11.20;1.00
23783;DHT22;12071;50.850;4.446;2024-02-21T12:32:11;11.20;1.00
23783;DHT22;12071;50.850;4.446;2024-02-21T12:34:36;11.30;1.00
23783;DHT22;12071;50.850;4.446;2024-02-21T12:37:02;11.50;1.00
23783;DHT22;12071;50.850;4.446;2024-02-21T12:39:28;11.60;1.00
23783;DHT22;12071;50.850;4.446;2024-02-21T12:41:54;11.50;1.00
23783;DHT22;12071;50.850;4.446;2024-02-21T12:44:22;11.50;1.00
23783;DHT22;12071;50.850;4.446;2024-02-21T12:46:47;11.60;1.00
23783;DHT22;12071;50.850;4.446;2024-02-21T12:49:18;11.60;1.00
23783;DHT22;12071;50.850;4.446;2024-02-21T12:51:44;11.70;1.00
23783;DHT22;12071;50.850;4.446;2024-02-21T12:54:12;11.60;1.00
23783;DHT22;12071;50.850;4.446;2024-02-21T12:56:38;11.50;1.00
23783;DHT22;12071;50.850;4.446;2024-02-21T12:59:05;11.60;1.00
23783;DHT22;12071;50.850;4.446;2024-02-21T13:01:33;11.60;1.00
23783;DHT22;12071;50.850;4.446;2024-02-21T13:03:59;11.50;1.00
23783;DHT22;12071;50.850;4.446;2024-02-21T13:06:26;11.60;1.00
23783;DHT22;12071;50.850;4.446;2024-02-21T13:08:52;11.70;1.00
23783;DHT22;12071;50.850;4.446;2024-02-21T13:11:18;11.80;1.00
23783;DHT22;12071;50.850;4.446;2024-02-21T13:13:44;11.60;1.00
23783;DHT22;12071;50.850;4.446;2024-02-21T13:16:10;11.60;1.00
23783;DHT22;12071;50.850;4.446;2024-02-21T13:18:36;11.70;1.00
23783;DHT22;12071;50.850;4.446;2024-02-21T13:21:04;11.80;1.00
23783;DHT22;12071;50.850;4.446;2024-02-21T13:23:30;11.70;1.00
23783;DHT22;12071;50.850;4.446;2024-02-21T13:25:56;11.60;1.00
23783;DHT22;12071;50.850;4.446;2024-02-21T13:28:21;11.50;1.00
23783;DHT22;12071;50.850;4.446;2024-02-21T13:30:48;11.50;1.00
23783;DHT22;12071;50.850;4.446;2024-02-21T13:33:13;11.50;1.00
23783;DHT22;12071;50.850;4.446;2024-02-21T13:35:39;11.60;1.00
23783;DHT22;12071;50.850;4.446;2024-02-21T13:38:05;11.60;1.00
23783;DHT22;12071;50.850;4.446;2024-02-21T13:40:31;11.60;1.00
23783;DHT22;12071;50.850;4.446;2024-02-21T13:42:56;11.60;1.00
23783;DHT22;12071;50.850;4.446;2024-02-21T13:45:22;11.50;1.00
23783;DHT22;12071;50.850;4.446;2024-02-21T13:47:48;11.60;1.00
23783;DHT22;12071;50.850;4.446;2024-02-21T13:50:14;11.60;1.00
23783;DHT22;12071;50.850;4.446;2024-02-21T13:52:41;11.50;46.50
23783;DHT22;12071;50.850;4.446;2024-02-21T13:55:07;11.50;99.90
23783;DHT22;12071;50.850;4.446;2024-02-21T13:57:37;11.40;99.90
23783;DHT22;12071;50.850;4.446;2024-02-21T14:00:06;11.40;99.90
23783;DHT22;12071;50.850;4.446;2024-02-21T14:02:36;11.40;99.90
23783;DHT22;12071;50.850;4.446;2024-02-21T14:05:02;11.30;99.90
23783;DHT22;12071;50.850;4.446;2024-02-21T14:07:31;11.20;99.90
23783;DHT22;12071;50.850;4.446;2024-02-21T14:09:57;11.20;99.90
23783;DHT22;12071;50.850;4.446;2024-02-21T14:12:23;11.30;99.90
23783;DHT22;12071;50.850;4.446;2024-02-21T14:14:48;11.50;99.90
23783;DHT22;12071;50.850;4.446;2024-02-21T14:17:15;11.30;99.90
23783;DHT22;12071;50.850;4.446;2024-02-21T14:19:41;11.30;99.90
23783;DHT22;12071;50.850;4.446;2024-02-21T14:22:07;11.20;99.90
23783;DHT22;12071;50.850;4.446;2024-02-21T14:24:33;11.20;99.90
23783;DHT22;12071;50.850;4.446;2024-02-21T14:26:59;11.20;99.90
23783;DHT22;12071;50.850;4.446;2024-02-21T14:29:25;11.20;99.90
23783;DHT22;12071;50.850;4.446;2024-02-21T14:31:50;11.20;99.90
23783;DHT22;12071;50.850;4.446;2024-02-21T14:34:16;11.20;99.90
23783;DHT22;12071;50.850;4.446;2024-02-21T14:36:42;11.10;99.90
23783;DHT22;12071;50.850;4.446;2024-02-21T14:39:07;11.20;99.90
23783;DHT22;12071;50.850;4.446;2024-02-21T14:41:34;11.10;99.90
23783;DHT22;12071;50.850;4.446;2024-02-21T14:44:05;11.10;99.90
23783;DHT22;12071;50.850;4.446;2024-02-21T14:46:33;11.10;99.90
23783;DHT22;12071;50.850;4.446;2024-02-21T14:48:59;11.20;99.90
23783;DHT22;12071;50.850;4.446;2024-02-21T14:51:24;11.00;99.90
23783;DHT22;12071;50.850;4.446;2024-02-21T14:53:50;11.10;99.90
23783;DHT22;12071;50.850;4.446;2024-02-21T14:56:17;11.00;99.90
23783;DHT22;12071;50.850;4.446;2024-02-21T14:58:42;11.00;99.90
23783;DHT22;12071;50.850;4.446;2024-02-21T15:01:08;10.90;1.00
23783;DHT22;12071;50.850;4.446;2024-02-21T15:03:34;10.90;1.00
23783;DHT22;12071;50.850;4.446;2024-02-21T15:06:01;10.90;1.00
23783;DHT22;12071;50.850;4.446;2024-02-21T15:08:27;10.80;1.00
23783;DHT22;12071;50.850;4.446;2024-02-21T15:10:54;10.70;1.00
23783;DHT22;12071;50.850;4.446;2024-02-21T15:13:20;10.60;1.00
23783;DHT22;12071;50.850;4.446;2024-02-21T15:15:47;10.50;1.00
23783;DHT22;12071;50.850;4.446;2024-02-21T15:18:15;10.40;1.00
23783;DHT22;12071;50.850;4.446;2024-02-21T15:20:40;10.40;1.00
23783;DHT22;12071;50.850;4.446;2024-02-21T15:23:06;10.50;1.00
23783;DHT22;12071;50.850;4.446;2024-02-21T15:25:32;10.40;1.00
23783;DHT22;12071;50.850;4.446;2024-02-21T15:27:59;10.50;1.00
23783;DHT22;12071;50.850;4.446;2024-02-21T15:30:24;10.50;1.00
23783;DHT22;12071;50.850;4.446;2024-02-21T15:32:50;10.50;1.00
23783;DHT22;12071;50.850;4.446;2024-02-21T15:35:16;10.60;1.00
23783;DHT22;12071;50.850;4.446;2024-02-21T15:37:41;10.60;1.00
23783;DHT22;12071;50.850;4.446;2024-02-21T15:40:07;10.60;1.00
23783;DHT22;12071;50.850;4.446;2024-02-21T15:42:34;10.50;1.00
23783;DHT22;12071;50.850;4.446;2024-02-21T15:45:00;10.60;1.00